• Join FlightAware (Why Join?)
  • Login
  • US Flag 
03:08AM EDT


 

Airport Tracker/Info


-or-


 

Live Flight TrackerFlight Track Log ✈ JZA7672 ✈ 25-May-2012 ✈ CYUL - CYYG

Flight Track Log - Related Links

Times and Time Zones

All times are in EDT time to prevent confusion due to time zone crossing. See the JZA7672 flight status page for this flight to view local times or setup timezone preferences in your user account.

Time Position Orientation Groundspeed Altitude Reporting Facility
EDT Latitude Longitude Course Direction KTS MPH feet Rate Location/Type
08:19AM 45.4500 -73.7500 110° East 140 161 100  Level Montreal Center
08:24AM 45.3667 -73.4333 78° East 300 345 10,900 2,100 Climbing Montreal Center
08:25AM 45.3833 -73.3167 101° East 310 357 12,700 1,620 Climbing Montreal Center
08:26AM 45.3667 -73.2000 81° East 310 357 14,200 1,500 Climbing Montreal Center
08:27AM 45.3833 -73.0500 78° East 310 357 15,700 1,380 Climbing Montreal Center
08:28AM 45.4000 -72.9333 78° East 320 368 17,000 1,260 Climbing Montreal Center
08:29AM 45.4167 -72.8167 78° East 320 368 18,300 1,320 Climbing Montreal Center
08:30AM 45.4333 -72.7000 101° East 310 357 19,700 1,380 Climbing Montreal Center
08:31AM 45.4167 -72.5833 80° East 310 357 21,100 1,200 Climbing Montreal Center
08:32AM 45.4333 -72.4500 78° East 300 345 22,200 1,020 Climbing Montreal Center
08:33AM 45.4500 -72.3333 78° East 300 345 23,200 1,020 Climbing Montreal Center
08:34AM 45.4667 -72.2167 101° East 300 345 24,300 900 Climbing Montreal Center
08:35AM 45.4500 -72.1000 78° East 310 357 25,000 300 Climbing Montreal Center
08:36AM 45.4667 -71.9833 81° East 320 368 25,000  Level Montreal Center
08:37AM 45.4833 -71.8333 90° East 340 391 25,000  Level Montreal Center
08:38AM 45.4833 -71.7167 90° East 340 391 25,000  Level Montreal Center
08:39AM 45.4833 -71.5667 80° East 340 391 25,000  Level Montreal Center
08:40AM 45.5000 -71.4333 90° East 350 403 25,000  Level Montreal Center
08:41AM 45.5000 -71.2833 78° East 350 403 25,000  Level Montreal Center
08:42AM 45.5167 -71.1667 81° East 340 391 25,000  Level Montreal Center
08:43AM 45.5333 -71.0167 90° East 340 391 25,000  Level Montreal Center
08:44AM 45.5333 -70.8667 90° East 350 403 25,000  Level Montreal Center
08:45AM 45.5333 -70.7500 90° East 340 391 25,000  Level Montreal Center
08:46AM 45.5333 -70.6000 72° East 330 380 25,000  Level Montreal Center
08:47AM 45.5553 -70.5019 87° East 335 386 25,000  Level Boston Center
08:48AM 45.5594 -70.3711 88° East 330 380 25,000  Level Boston Center
08:49AM 45.5633 -70.2378 89° East 330 380 25,000  Level Boston Center
08:50AM 45.5647 -70.1072 88° East 330 380 25,000  Level Boston Center
08:51AM 45.5683 -69.9736 89° East 330 380 25,000  Level Boston Center
08:52AM 45.5697 -69.8431 89° East 330 380 25,000  Level Boston Center
08:53AM 45.5708 -69.7097 87° East 330 380 25,000  Level Boston Center
08:54AM 45.5758 -69.5758 90° East 330 380 25,000  Level Boston Center
08:55AM 45.5764 -69.4306 88° East 330 380 25,000  Level Boston Center
08:56AM 45.5792 -69.2969 88° East 330 380 25,000  Level Boston Center
08:57AM 45.5817 -69.1664 90° East 330 380 25,000  Level Boston Center
08:58AM 45.5822 -69.0358 89° East 330 380 25,000  Level Boston Center
08:59AM 45.5844 -68.9022 90° East 330 380 25,000  Level Boston Center
09:00AM 45.5844 -68.7686 90° East 330 380 25,000  Level Boston Center
09:01AM 45.5844 -68.6381 88° East 330 380 25,000  Level Boston Center
09:02AM 45.5883 -68.5044 77° East 330 380 25,000  Level Boston Center
09:03AM 45.6108 -68.3692 77° East 330 380 25,000  Level Boston Center
09:04AM 45.6311 -68.2403 77° East 335 386 25,000  Level Boston Center
09:05AM 45.6533 -68.1047 78° East 341 392 25,000  Level Boston Center
09:06AM 45.6731 -67.9667 78° East 341 392 25,000  Level Boston Center
09:07AM 45.6928 -67.8314 79° East 341 392 25,000  Level Boston Center
09:09AM 45.7167 -67.6500 80° East 350 403 25,000  Level Moncton Center
09:10AM 45.7333 -67.5167 81° East 350 403 25,000  Level Moncton Center
09:11AM 45.7500 -67.3667 90° East 350 403 25,000  Level Moncton Center
09:12AM 45.7500 -67.2500 72° East 350 403 25,000  Level Moncton Center
09:13AM 45.7833 -67.1000 80° East 350 403 25,000  Level Moncton Center
09:14AM 45.8000 -66.9667 78° East 350 403 25,000  Level Moncton Center
09:15AM 45.8167 -66.8500 81° East 350 403 25,000  Level Moncton Center
09:16AM 45.8333 -66.7000 80° East 350 403 25,000  Level Moncton Center
09:17AM 45.8500 -66.5667 81° East 350 403 25,000  Level Moncton Center
09:18AM 45.8667 -66.4167 68° East 350 403 25,000  Level Moncton Center
09:19AM 45.9000 -66.3000 72° East 350 403 25,000  Level Moncton Center
09:20AM 45.9333 -66.1500 80° East 350 403 25,000  Level Moncton Center
09:21AM 45.9500 -66.0167 80° East 350 403 25,000  Level Moncton Center
09:22AM 45.9667 -65.8833 80° East 350 403 25,000  Level Moncton Center
09:23AM 45.9833 -65.7500 72° East 350 403 25,000  Level Moncton Center
09:24AM 46.0167 -65.6000 80° East 350 403 25,000  Level Moncton Center
09:26AM 46.0500 -65.3333 80° East 360 414 25,000  Level Moncton Center
09:27AM 46.0667 -65.2000 72° East 360 414 25,000 -180 Level Moncton Center
09:28AM 46.1000 -65.0500 64° Northeast 360 414 24,700 -900 Descending Moncton Center
09:29AM 46.1500 -64.9000 70° East 370 426 23,200 -1,560 Descending Moncton Center
09:30AM 46.1833 -64.7667 81° East 370 426 21,600 -1,500 Descending Moncton Center
09:31AM 46.2000 -64.6167 68° East 370 426 20,200 -1,500 Descending Moncton Center
09:32AM 46.2333 -64.5000 75° East 360 414 18,700 -1,440 Descending Moncton Center
09:33AM 46.2667 -64.3167 78° East 370 426 17,400 -1,440 Descending Moncton Center
09:34AM 46.2833 -64.2000 74° East 370 426 15,900 -1,500 Descending Moncton Center
09:35AM 46.3167 -64.0333 67° East 370 426 14,400 -1,500 Descending Moncton Center
09:36AM 46.3500 -63.9167 72° East 360 414 12,900 -1,500 Descending Moncton Center
09:37AM 46.3833 -63.7667 90° East 350 403 11,400 -1,620 Descending Moncton Center
09:38AM 46.3833 -63.6500 100° East 320 368 9,700 -1,800 Descending Moncton Center
09:39AM 46.3667 -63.5167 90° East 290 334 7,900 -1,740 Descending Moncton Center
09:40AM 46.3667 -63.4333 90° East 270 311 6,300 -1,500 Descending Moncton Center
09:41AM 46.3667 -63.3333 90° East 270 311 4,900 -1,620 Descending Moncton Center
09:42AM 46.3667 -63.2167 90° East 260 299 3,100 -1,500 Descending Moncton Center
09:43AM 46.3667 -63.1333 134° Southeast 230 265 2,000 -960 Descending Moncton Center
09:44AM 46.3333 -63.0833 215° Southwest 160 184 1,200 -780 Descending Moncton Center
09:45AM 46.3000 -63.1167 180° South 130 150 500 -420 Descending Moncton Center
09:46AM 46.2667 -63.1167 180° South 120 138 400 -120 Descending Moncton Center